createdAt,value
2023-03-29T00:02:05.250Z,3.80
2023-03-29T00:05:09.320Z,2.83
2023-03-29T00:08:14.466Z,3.27
2023-03-29T00:11:17.215Z,3.33
2023-03-29T00:14:19.813Z,2.10
2023-03-29T00:17:23.997Z,2.33
2023-03-29T00:20:27.017Z,2.47
2023-03-29T00:23:29.726Z,4.13
2023-03-29T00:26:32.207Z,3.23
2023-03-29T00:29:35.048Z,2.83
2023-03-29T00:32:39.018Z,4.88
2023-03-29T00:35:42.526Z,4.37
2023-03-29T00:38:45.244Z,3.10
2023-03-29T00:41:48.113Z,2.73
2023-03-29T00:45:04.044Z,2.58
2023-03-29T00:48:09.155Z,3.50
2023-03-29T00:51:14.248Z,2.77
2023-03-29T00:54:18.651Z,5.47
2023-03-29T00:57:21.784Z,2.27
2023-03-29T01:00:29.709Z,3.10
2023-03-29T01:03:41.441Z,3.13
2023-03-29T01:06:47.939Z,3.83
2023-03-29T01:09:54.486Z,1.93
2023-03-29T01:13:01.466Z,5.00
2023-03-29T01:16:05.002Z,5.03
2023-03-29T01:19:11.535Z,2.22
2023-03-29T01:22:25.878Z,2.40
2023-03-29T01:25:33.335Z,2.03
2023-03-29T01:28:39.945Z,1.80
2023-03-29T01:31:45.623Z,2.20
2023-03-29T01:34:52.077Z,3.40
2023-03-29T01:37:58.364Z,4.13
2023-03-29T01:41:03.353Z,2.23
2023-03-29T01:44:09.280Z,2.70
2023-03-29T01:47:16.290Z,2.73
2023-03-29T01:50:20.942Z,3.10
2023-03-29T01:53:28.371Z,4.60
2023-03-29T01:56:32.070Z,2.23
2023-03-29T02:02:40.218Z,4.43
2023-03-29T02:05:43.342Z,2.67
2023-03-29T02:08:46.591Z,3.15
2023-03-29T02:11:49.706Z,4.18
2023-03-29T02:14:53.931Z,5.55
2023-03-29T02:17:56.836Z,3.07
2023-03-29T02:21:00.194Z,3.78
2023-03-29T02:24:04.910Z,6.03
2023-03-29T02:27:07.658Z,6.50
2023-03-29T02:30:13.638Z,2.90
2023-03-29T02:33:19.206Z,3.87
2023-03-29T02:36:24.175Z,2.20
2023-03-29T02:39:27.877Z,2.17
2023-03-29T02:45:34.641Z,2.40
2023-03-29T02:48:38.562Z,2.13
2023-03-29T02:51:41.177Z,2.20
2023-03-29T02:54:45.262Z,2.47
2023-03-29T02:57:47.794Z,1.73
2023-03-29T03:00:51.710Z,2.30
2023-03-29T03:03:54.367Z,3.20
2023-03-29T03:06:57.029Z,4.65
2023-03-29T03:09:59.560Z,2.13
2023-03-29T03:13:02.540Z,5.97
2023-03-29T03:16:07.955Z,4.57
2023-03-29T03:19:11.374Z,3.60
2023-03-29T03:22:14.902Z,3.80
2023-03-29T03:25:19.387Z,2.72
2023-03-29T03:28:24.133Z,2.13
2023-03-29T03:31:28.449Z,2.17
2023-03-29T03:34:31.030Z,2.40
2023-03-29T03:37:33.577Z,6.27
2023-03-29T03:40:36.069Z,6.60
2023-03-29T03:43:41.137Z,4.50
2023-03-29T03:46:45.056Z,4.07
2023-03-29T03:49:47.550Z,5.07
2023-03-29T03:52:50.121Z,3.73
2023-03-29T03:55:54.188Z,2.70
2023-03-29T03:58:56.716Z,5.13
2023-03-29T04:02:01.409Z,2.67
2023-03-29T04:05:04.210Z,2.60
2023-03-29T04:08:07.390Z,4.80
2023-03-29T04:11:10.519Z,7.85
2023-03-29T04:14:13.171Z,3.08
2023-03-29T04:17:17.054Z,2.67
2023-03-29T04:20:19.610Z,1.87
2023-03-29T04:23:22.168Z,4.33
2023-03-29T04:26:24.732Z,4.30
2023-03-29T04:29:27.411Z,2.80
2023-03-29T04:32:31.275Z,3.37
2023-03-29T04:35:34.269Z,0.80
2023-03-29T04:38:37.879Z,2.53
2023-03-29T04:41:41.118Z,1.52
2023-03-29T04:44:43.806Z,2.08
2023-03-29T04:47:47.719Z,1.25
2023-03-29T04:50:50.628Z,3.17
2023-03-29T04:53:53.209Z,1.85
2023-03-29T04:56:56.659Z,2.23
2023-03-29T04:59:59.298Z,3.95
2023-03-29T05:03:04.422Z,1.80
2023-03-29T05:06:08.734Z,4.43
2023-03-29T05:09:11.421Z,2.40
2023-03-29T05:12:14.075Z,3.30
2023-03-29T05:15:17.102Z,1.83
2023-03-29T05:18:21.093Z,1.77
2023-03-29T05:21:23.978Z,5.43
2023-03-29T05:24:26.632Z,2.58
2023-03-29T05:27:29.748Z,1.40
2023-03-29T05:30:32.696Z,2.08
2023-03-29T05:33:36.969Z,3.28
2023-03-29T05:36:39.793Z,3.17
2023-03-29T05:39:43.029Z,4.05
2023-03-29T05:42:45.708Z,0.98
2023-03-29T05:45:48.618Z,3.30
2023-03-29T05:48:52.560Z,1.50
2023-03-29T05:51:56.956Z,3.63
2023-03-29T05:54:59.512Z,2.57
2023-03-29T05:58:03.727Z,1.10
2023-03-29T06:01:12.619Z,4.13
2023-03-29T06:04:17.935Z,2.03
2023-03-29T06:07:20.864Z,1.70
2023-03-29T06:10:24.705Z,3.47
2023-03-29T06:13:27.803Z,3.73
2023-03-29T06:16:30.664Z,3.25
2023-03-29T06:19:34.707Z,4.97
2023-03-29T06:22:37.572Z,1.73
2023-03-29T06:25:40.481Z,5.13
2023-03-29T06:28:43.172Z,3.08
2023-03-29T06:31:46.018Z,2.40
2023-03-29T06:34:50.950Z,2.53
2023-03-29T06:37:54.413Z,4.90
2023-03-29T06:41:02.181Z,4.10
2023-03-29T06:44:05.124Z,2.43
2023-03-29T06:47:08.259Z,3.75
2023-03-29T06:50:14.582Z,2.60
2023-03-29T06:53:17.281Z,3.10
2023-03-29T06:56:19.825Z,3.50
2023-03-29T06:59:22.317Z,12.60
2023-03-29T07:02:24.928Z,6.33
2023-03-29T07:05:29.487Z,5.07
2023-03-29T07:08:32.324Z,1.63
2023-03-29T07:11:35.317Z,7.13
2023-03-29T07:14:37.985Z,9.80
2023-03-29T07:17:40.565Z,4.10
2023-03-29T07:20:44.636Z,3.77
2023-03-29T07:23:47.172Z,4.10
2023-03-29T07:27:03.515Z,5.03
2023-03-29T07:30:11.155Z,3.43
2023-03-29T07:33:14.253Z,1.10
2023-03-29T07:36:18.436Z,6.93
2023-03-29T07:39:22.270Z,2.67
2023-03-29T07:42:24.818Z,2.23
2023-03-29T07:45:29.067Z,2.97
2023-03-29T07:48:32.374Z,5.17
2023-03-29T07:51:37.008Z,2.80
2023-03-29T07:54:39.671Z,1.73
2023-03-29T07:57:43.683Z,3.85
2023-03-29T08:00:46.512Z,3.70
2023-03-29T08:03:49.232Z,1.73
2023-03-29T08:06:54.209Z,4.90
2023-03-29T08:09:57.369Z,4.43
2023-03-29T08:13:00.164Z,5.78
2023-03-29T08:16:03.374Z,3.00
2023-03-29T08:19:07.081Z,2.35
2023-03-29T08:22:10.946Z,5.00
2023-03-29T08:25:13.610Z,1.23
2023-03-29T08:28:16.094Z,1.30
2023-03-29T08:31:18.742Z,2.93
2023-03-29T08:34:21.366Z,5.03
2023-03-29T08:37:25.952Z,5.00
2023-03-29T08:40:30.129Z,2.83
2023-03-29T08:43:53.132Z,1.57
2023-03-29T08:47:02.048Z,2.63
2023-03-29T08:50:05.635Z,4.90
2023-03-29T08:56:14.723Z,6.97
2023-03-29T08:59:20.582Z,3.80
2023-03-29T09:02:26.161Z,7.50
2023-03-29T09:05:31.165Z,3.47
2023-03-29T09:08:36.670Z,2.57
2023-03-29T09:11:58.248Z,2.20
2023-03-29T09:15:09.957Z,1.50
2023-03-29T09:18:15.619Z,3.20
2023-03-29T09:21:22.301Z,3.47
2023-03-29T09:24:38.818Z,2.07
2023-03-29T09:27:48.718Z,3.77
2023-03-29T09:30:56.426Z,2.10
2023-03-29T09:34:00.204Z,3.80
2023-03-29T09:37:04.852Z,4.73
2023-03-29T09:40:12.611Z,5.07
2023-03-29T09:43:18.313Z,3.70
2023-03-29T09:46:24.038Z,2.13
2023-03-29T09:49:29.761Z,1.63
2023-03-29T09:52:33.063Z,3.23
2023-03-29T09:55:39.526Z,3.70
2023-03-29T09:58:43.589Z,2.67
2023-03-29T10:01:46.499Z,3.87
2023-03-29T10:04:55.195Z,3.67
2023-03-29T10:08:01.085Z,4.90
2023-03-29T10:11:10.495Z,3.07
2023-03-29T10:14:16.156Z,2.30
2023-03-29T10:17:21.800Z,2.17
2023-03-29T10:20:25.753Z,2.93
2023-03-29T10:23:32.468Z,1.13
2023-03-29T10:26:38.996Z,1.90
2023-03-29T10:29:43.028Z,2.07
2023-03-29T10:32:46.237Z,1.77
2023-03-29T10:35:49.366Z,2.75
2023-03-29T10:38:52.629Z,3.95
2023-03-29T10:41:57.064Z,2.58
2023-03-29T10:45:00.616Z,2.47
2023-03-29T10:48:06.840Z,3.33
2023-03-29T10:51:09.427Z,1.30
2023-03-29T10:54:14.807Z,4.38
2023-03-29T10:57:24.589Z,4.33
2023-03-29T11:00:33.618Z,3.00
2023-03-29T11:03:55.969Z,4.50
2023-03-29T11:07:14.147Z,2.90
2023-03-29T11:10:28.350Z,2.27
2023-03-29T11:13:38.324Z,3.20
2023-03-29T11:16:45.681Z,3.70
2023-03-29T11:20:01.927Z,1.93
2023-03-29T11:23:16.449Z,1.90
2023-03-29T11:26:22.783Z,2.95
2023-03-29T11:29:29.631Z,1.87
2023-03-29T11:32:37.212Z,1.50
2023-03-29T11:35:44.763Z,1.60
2023-03-29T11:38:54.253Z,2.90
2023-03-29T11:42:01.519Z,1.50
2023-03-29T11:45:07.866Z,2.10
2023-03-29T11:48:16.538Z,3.47
2023-03-29T11:51:22.553Z,4.57
2023-03-29T11:54:29.405Z,1.20
2023-03-29T11:57:33.161Z,2.10
2023-03-29T12:00:39.452Z,2.57
2023-03-29T12:03:47.192Z,4.70
2023-03-29T12:06:54.301Z,3.63
2023-03-29T12:10:00.415Z,3.57
2023-03-29T12:13:05.700Z,1.67
2023-03-29T12:16:14.907Z,1.60
2023-03-29T12:19:20.567Z,1.20
2023-03-29T12:22:23.482Z,6.27
2023-03-29T12:25:29.412Z,4.75
2023-03-29T12:28:50.577Z,1.80
2023-03-29T12:32:02.559Z,0.93
2023-03-29T12:35:19.608Z,1.70
2023-03-29T12:38:23.755Z,3.13
2023-03-29T12:41:26.544Z,1.30
2023-03-29T12:44:29.278Z,1.35
2023-03-29T12:47:39.616Z,1.00
2023-03-29T12:50:46.866Z,1.13
2023-03-29T12:53:51.602Z,2.37
2023-03-29T12:56:58.226Z,1.70
2023-03-29T13:00:11.893Z,2.83
2023-03-29T13:06:32.173Z,5.33
2023-03-29T13:09:37.514Z,1.63
2023-03-29T13:12:42.273Z,2.53
2023-03-29T13:15:45.751Z,1.30
2023-03-29T13:19:01.342Z,3.67
2023-03-29T13:22:12.927Z,1.17
2023-03-29T13:25:24.235Z,1.53
2023-03-29T13:28:31.196Z,4.27
2023-03-29T13:31:39.245Z,2.47
2023-03-29T13:34:47.530Z,3.00
2023-03-29T13:37:59.458Z,1.60
2023-03-29T13:41:04.167Z,2.83
2023-03-29T13:44:19.312Z,5.17
2023-03-29T13:47:43.159Z,1.27
2023-03-29T13:50:56.525Z,2.13
2023-03-29T13:54:02.862Z,1.33
2023-03-29T13:57:11.116Z,3.50
2023-03-29T14:00:18.165Z,1.27
2023-03-29T14:03:26.211Z,3.07
2023-03-29T14:06:32.884Z,2.50
2023-03-29T14:09:39.881Z,1.93
2023-03-29T14:12:42.436Z,7.17
2023-03-29T14:15:46.888Z,1.80
2023-03-29T14:18:51.410Z,2.37
2023-03-29T14:21:55.477Z,5.07
2023-03-29T14:25:02.491Z,4.83
2023-03-29T14:28:14.103Z,2.10
2023-03-29T14:31:20.530Z,4.37
2023-03-29T14:34:24.016Z,1.90
2023-03-29T14:37:29.691Z,3.88
2023-03-29T14:40:33.914Z,3.67
2023-03-29T14:43:36.496Z,4.00
2023-03-29T14:46:39.309Z,1.40
2023-03-29T14:49:41.881Z,5.00
2023-03-29T14:52:47.583Z,2.22
2023-03-29T14:55:52.857Z,1.83
2023-03-29T14:58:56.628Z,1.80
2023-03-29T15:01:59.267Z,7.13
2023-03-29T15:05:04.689Z,3.83
2023-03-29T15:08:13.667Z,4.20
2023-03-29T15:11:20.069Z,2.43
2023-03-29T15:14:23.603Z,1.77
2023-03-29T15:17:43.179Z,4.87
2023-03-29T15:20:52.589Z,2.10
2023-03-29T15:23:58.318Z,3.08
2023-03-29T15:27:03.366Z,2.93
2023-03-29T15:30:13.387Z,2.07
2023-03-29T15:33:17.767Z,2.50
2023-03-29T15:36:20.440Z,2.87
2023-03-29T15:39:24.725Z,2.05
2023-03-29T15:42:27.486Z,3.40
2023-03-29T15:45:30.109Z,3.40
2023-03-29T15:48:33.626Z,1.73
2023-03-29T15:51:36.401Z,2.73
2023-03-29T15:54:40.403Z,1.98
2023-03-29T15:57:44.722Z,3.80
2023-03-29T16:00:50.876Z,10.93
2023-03-29T16:03:53.668Z,7.40
2023-03-29T16:06:57.650Z,3.40
2023-03-29T16:10:01.643Z,5.47
2023-03-29T16:13:04.392Z,4.93
2023-03-29T16:16:08.442Z,7.82
2023-03-29T16:19:11.161Z,7.97
2023-03-29T16:22:13.763Z,3.40
2023-03-29T16:25:19.980Z,6.20
2023-03-29T16:28:22.889Z,8.90
2023-03-29T16:31:27.029Z,7.63
2023-03-29T16:34:30.059Z,9.63
2023-03-29T16:37:32.844Z,3.80
2023-03-29T16:40:37.185Z,3.03
2023-03-29T16:43:39.732Z,4.13
2023-03-29T16:46:42.531Z,3.65
2023-03-29T16:49:48.526Z,3.28
2023-03-29T16:52:52.851Z,1.97
2023-03-29T16:55:56.849Z,10.00
2023-03-29T16:58:59.409Z,2.77
2023-03-29T17:02:01.872Z,6.30
2023-03-29T17:05:06.016Z,6.53
2023-03-29T17:08:10.026Z,9.47
2023-03-29T17:11:15.512Z,5.00
2023-03-29T17:14:18.080Z,4.40
2023-03-29T17:17:20.662Z,9.63
2023-03-29T17:20:23.178Z,6.68
2023-03-29T17:23:26.612Z,5.97
2023-03-29T17:29:33.497Z,6.00
2023-03-29T17:32:36.738Z,5.28
2023-03-29T17:35:39.685Z,4.68
2023-03-29T17:38:43.043Z,4.07
2023-03-29T17:41:47.622Z,9.37
2023-03-29T17:44:51.034Z,7.07
2023-03-29T17:50:57.832Z,5.47
2023-03-29T17:54:01.597Z,8.03
2023-03-29T17:57:05.764Z,10.27
2023-03-29T18:00:12.129Z,7.73
2023-03-29T18:03:14.780Z,8.37
2023-03-29T18:06:20.206Z,7.57
2023-03-29T18:09:22.899Z,9.20
2023-03-29T18:12:27.085Z,6.03
2023-03-29T18:15:29.689Z,6.47
2023-03-29T18:18:32.726Z,8.27
2023-03-29T18:21:35.257Z,12.65
2023-03-29T18:24:37.890Z,4.10
2023-03-29T18:27:41.767Z,11.48
2023-03-29T18:30:44.577Z,7.67
2023-03-29T18:33:47.510Z,5.45
2023-03-29T18:36:50.791Z,9.15
2023-03-29T18:39:53.300Z,8.82
2023-03-29T18:42:57.284Z,6.47
2023-03-29T18:45:59.994Z,5.10
2023-03-29T18:49:03.110Z,7.72
2023-03-29T18:52:05.811Z,5.88
2023-03-29T18:55:10.236Z,6.85
2023-03-29T18:58:15.651Z,3.13
2023-03-29T19:01:18.297Z,7.93
2023-03-29T19:04:20.969Z,8.93
2023-03-29T19:07:23.767Z,10.27
2023-03-29T19:10:27.349Z,8.45
2023-03-29T19:16:33.964Z,9.05
2023-03-29T19:19:37.765Z,13.52
2023-03-29T19:22:40.412Z,6.40
2023-03-29T19:28:47.184Z,7.22
2023-03-29T19:31:51.806Z,8.63
2023-03-29T19:34:54.332Z,10.47
2023-03-29T19:37:56.837Z,11.13
2023-03-29T19:40:59.531Z,10.27
2023-03-29T19:44:03.723Z,14.35
2023-03-29T19:47:06.438Z,49.37
2023-03-29T19:50:12.301Z,63.10
2023-03-29T19:53:14.997Z,43.90
2023-03-29T19:56:17.869Z,30.05
2023-03-29T19:59:21.765Z,22.65
2023-03-29T20:02:24.319Z,31.47
2023-03-29T20:05:27.292Z,23.55
2023-03-29T20:08:29.918Z,16.65
2023-03-29T20:11:32.519Z,17.77
2023-03-29T20:14:40.112Z,17.17
2023-03-29T20:17:42.815Z,17.87
2023-03-29T20:20:46.815Z,19.10
2023-03-29T20:23:49.395Z,15.47
2023-03-29T20:26:51.926Z,18.87
2023-03-29T20:29:55.935Z,20.93
2023-03-29T20:32:58.514Z,15.77
2023-03-29T20:36:01.386Z,17.33
2023-03-29T20:39:04.964Z,16.35
2023-03-29T20:45:18.579Z,11.97
2023-03-29T20:48:23.093Z,12.63
2023-03-29T20:51:28.062Z,14.50
2023-03-29T20:54:33.199Z,13.30
2023-03-29T20:57:36.727Z,14.07
2023-03-29T21:00:40.639Z,12.07
2023-03-29T21:03:43.273Z,14.40
2023-03-29T21:06:49.571Z,11.48
2023-03-29T21:09:52.129Z,9.10
2023-03-29T21:13:00.022Z,13.50
2023-03-29T21:16:03.972Z,11.43
2023-03-29T21:19:06.558Z,11.47
2023-03-29T21:22:09.101Z,8.77
2023-03-29T21:25:15.505Z,11.63
2023-03-29T21:28:18.128Z,8.93
2023-03-29T21:31:22.074Z,7.77
2023-03-29T21:34:24.633Z,6.30
2023-03-29T21:37:27.405Z,11.87
2023-03-29T21:40:29.953Z,8.00
2023-03-29T21:43:32.682Z,5.60
2023-03-29T21:46:36.769Z,6.22
2023-03-29T21:49:39.630Z,5.73
2023-03-29T21:52:42.228Z,10.27
2023-03-29T21:55:44.858Z,14.32
2023-03-29T21:58:47.423Z,11.38
2023-03-29T22:01:51.280Z,7.82
2023-03-29T22:04:53.851Z,13.07
2023-03-29T22:07:58.700Z,10.50
2023-03-29T22:11:08.048Z,3.40
2023-03-29T22:14:10.931Z,5.93
2023-03-29T22:17:15.945Z,8.82
2023-03-29T22:20:18.958Z,5.27
2023-03-29T22:23:21.571Z,4.63
2023-03-29T22:26:27.397Z,8.93
2023-03-29T22:29:30.061Z,12.13
2023-03-29T22:32:33.913Z,8.93
2023-03-29T22:35:36.904Z,7.20
2023-03-29T22:38:39.461Z,7.95
2023-03-29T22:41:42.289Z,5.80
2023-03-29T22:44:44.797Z,5.25
2023-03-29T22:47:48.704Z,12.02
2023-03-29T22:50:51.286Z,6.13
2023-03-29T22:53:54.056Z,13.13
2023-03-29T22:56:57.568Z,7.95
2023-03-29T23:03:04.020Z,6.43
2023-03-29T23:06:07.113Z,10.10
2023-03-29T23:09:10.283Z,10.13
2023-03-29T23:12:12.833Z,16.05
2023-03-29T23:15:16.046Z,12.10
2023-03-29T23:18:21.109Z,10.07
2023-03-29T23:21:23.796Z,9.33
2023-03-29T23:24:26.574Z,7.55
2023-03-29T23:27:29.414Z,5.22
2023-03-29T23:30:31.972Z,5.47
2023-03-29T23:33:38.506Z,7.50
2023-03-29T23:36:41.116Z,8.87
2023-03-29T23:39:43.688Z,10.50
2023-03-29T23:42:48.340Z,8.48
2023-03-29T23:45:56.654Z,8.97
2023-03-29T23:49:00.530Z,9.27
2023-03-29T23:52:03.168Z,10.40
2023-03-29T23:55:06.644Z,4.90
